Time;durP1;ratioP1;P1;durP2;ratioP2;P2;SDS_P1;SDS_P2;PMS_P1;PMS_P2;Temp;Humidity;BMP_temperature;BMP_pressure;BME280_temperature;BME280_humidity;BME280_pressure;Samples;Min_cycle;Max_cycle;Signal;HPM_P1;HPM_P2
2021/07/16 00:48:05;;;;;;;;;;;;;;;;;;;;;
2021/07/16 00:51:22;;;;;;;;;;;;;;;;;;;;;
2021/07/16 01:09:10;;;;;;;;;;;;;;;;;;;;;
2021/07/16 01:12:26;;;;;;;;;;;;;;;;;;;;;
2021/07/16 01:15:30;;;;;;;17.87;5.67;;;16.30;96.50;;;;;;4675043;30;20508;-86
2021/07/16 01:36:05;;;;;;;18.88;7.00;;;16.60;96.60;;;;;;4699467;30;20037;-86
2021/07/16 01:39:20;;;;;;;18.92;7.88;;;16.60;96.50;;;;;;4698953;30;20526;-87
2021/07/16 01:42:51;;;;;;;;;;;;;;;;;;;;;
2021/07/16 01:50:07;;;;;;;58.17;9.50;;;16.60;96.60;;;;;;4869113;29;20149;-86
2021/07/16 01:53:15;;;;;;;;;;;;;;;;;;;;;
2021/07/16 01:57:04;;;;;;;;;;;;;;;;;;;;;
2021/07/16 02:00:34;;;;;;;;;;;;;;;;;;;;;
2021/07/16 02:04:00;;;;;;;;;;;;;;;;;;;;;
2021/07/16 02:22:36;;;;;;;26.35;10.32;;;16.60;96.60;;;;;;4937006;29;20110;-86
2021/07/16 02:25:23;;;;;;;33.22;10.25;;;16.70;96.60;;;;;;4919490;29;20036;-86
2021/07/16 02:28:23;;;;;;;29.13;10.52;;;16.60;96.70;;;;;;4919448;29;20043;-86
2021/07/16 02:31:37;;;;;;;30.45;9.93;;;16.60;96.60;;;;;;4875854;29;20563;-86
2021/07/16 02:34:53;;;;;;;20.17;7.97;;;16.60;96.50;;;;;;4899252;29;20095;-87
2021/07/16 02:42:04;;;;;;;;;;;;;;;;;;;;;
2021/07/16 02:49:18;;;;;;;;;;;;;;;;;;;;;
2021/07/16 02:52:27;;;;;;;;;;;;;;;;;;;;;
2021/07/16 02:55:46;;;;;;;;;;;;;;;;;;;;;
2021/07/16 03:02:26;;;;;;;23.58;8.70;;;16.40;96.50;;;;;;4737531;30;20037;-87
2021/07/16 03:15:54;;;;;;;;;;;;;;;;;;;;;
2021/07/16 03:21:59;;;;;;;21.20;8.75;;;16.50;96.70;;;;;;4859805;29;20062;-86
2021/07/16 03:25:22;;;;;;;20.83;9.02;;;16.50;96.80;;;;;;4938164;29;20134;-86
2021/07/16 03:28:45;;;;;;;;;;;;;;;;;;;;;
2021/07/16 04:05:56;;;;;;;16.48;7.68;;;16.80;96.80;;;;;;5698343;23;20496;-86
2021/07/16 04:09:27;;;;;;;16.48;6.95;;;16.80;96.90;;;;;;4892594;29;20044;-86
2021/07/16 04:12:26;;;;;;;17.13;7.20;;;17.00;96.90;;;;;;4898522;29;20049;-85
2021/07/16 04:14:56;;;;;;;16.52;7.03;;;17.00;96.90;;;;;;4885118;29;20025;-85
2021/07/16 04:17:34;;;;;;;15.85;7.05;;;17.10;97.10;;;;;;4898576;29;20075;-85
2021/07/16 04:20:58;;;;;;;14.93;5.95;;;17.10;97.00;;;;;;4931534;29;20036;-85
2021/07/16 04:27:04;;;;;;;;;;;;;;;;;;;;;
2021/07/16 05:01:10;;;;;;;11.95;6.30;;;18.30;96.90;;;;;;5111210;23;20056;-87
2021/07/16 05:03:53;;;;;;;;;;;;;;;;;;;;;
2021/07/16 05:06:21;;;;;;;15.25;6.60;;;18.30;97.00;;;;;;4918770;29;20032;-84
2021/07/16 05:15:50;;;;;;;10.30;6.35;;;18.80;97.00;;;;;;4898139;29;20153;-86
2021/07/16 05:18:17;;;;;;;10.93;5.63;;;18.80;96.90;;;;;;4896997;29;20508;-85
2021/07/16 05:20:43;;;;;;;10.15;5.85;;;18.90;96.80;;;;;;4897585;29;20025;-85
2021/07/16 05:23:12;;;;;;;10.35;6.30;;;18.80;96.60;;;;;;4900589;29;20051;-85
2021/07/16 05:25:39;;;;;;;11.48;6.00;;;18.80;96.60;;;;;;4901330;29;20043;-85
2021/07/16 05:28:27;;;;;;;10.48;5.57;;;18.80;96.70;;;;;;4918422;29;20028;-88
2021/07/16 05:30:53;;;;;;;12.70;5.40;;;19.00;97.00;;;;;;4919098;29;20035;-82
2021/07/16 05:33:20;;;;;;;10.02;5.60;;;19.10;97.00;;;;;;4918636;29;20045;-82
2021/07/16 05:35:46;;;;;;;10.60;5.50;;;19.10;96.70;;;;;;4909601;29;20080;-81
2021/07/16 05:38:11;;;;;;;10.70;5.88;;;19.20;96.90;;;;;;4899599;29;20036;-81
2021/07/16 05:40:38;;;;;;;11.52;5.20;;;19.30;97.00;;;;;;4899281;29;20146;-80
2021/07/16 05:43:08;;;;;;;9.80;5.70;;;19.30;96.60;;;;;;4898985;29;20027;-81
2021/07/16 05:45:35;;;;;;;9.25;5.22;;;19.30;96.70;;;;;;4899282;29;20036;-80
2021/07/16 05:48:03;;;;;;;9.38;5.40;;;19.40;96.90;;;;;;4899230;29;20021;-80
2021/07/16 05:50:29;;;;;;;10.15;5.80;;;19.50;97.00;;;;;;4899055;29;20039;-80
2021/07/16 05:52:55;;;;;;;10.45;6.15;;;19.60;96.80;;;;;;4899558;29;20051;-81
2021/07/16 05:55:21;;;;;;;9.50;5.47;;;19.60;96.50;;;;;;4899144;29;20487;-81
2021/07/16 05:57:49;;;;;;;13.07;5.55;;;19.50;96.20;;;;;;4905210;29;20084;-90
2021/07/16 06:00:24;;;;;;;11.27;5.45;;;19.50;96.30;;;;;;4902069;29;20028;-90
2021/07/16 06:06:24;;;;;;;8.85;5.03;;;19.80;96.90;;;;;;5428649;23;20049;-93
2021/07/16 06:14:55;;;;;;;9.75;5.50;;;20.00;96.80;;;;;;4990004;23;20059;-91
2021/07/16 06:17:32;;;;;;;11.70;7.82;;;20.10;97.00;;;;;;4931536;29;20037;-89
2021/07/16 06:20:01;;;;;;;31.08;24.48;;;20.30;97.00;;;;;;4949008;29;20027;-91
2021/07/16 06:22:38;;;;;;;10.90;6.15;;;20.40;96.90;;;;;;4952075;28;20003;-92
2021/07/16 06:25:09;;;;;;;11.65;5.90;;;20.50;96.50;;;;;;4933084;29;20035;-95
2021/07/16 06:27:39;;;;;;;9.80;5.55;;;20.40;96.20;;;;;;4948869;29;20050;-96
2021/07/16 06:30:19;;;;;;;10.13;5.47;;;20.30;96.30;;;;;;4952431;29;20027;-93
2021/07/16 06:32:51;;;;;;;11.88;6.70;;;20.30;96.20;;;;;;4943165;29;20122;-94
2021/07/16 06:35:32;;;;;;;11.43;5.88;;;20.20;96.10;;;;;;4956477;29;20023;-95
2021/07/16 06:38:26;;;;;;;9.63;5.68;;;20.20;96.00;;;;;;4974447;28;20039;-94
2021/07/16 06:41:09;;;;;;;10.27;5.68;;;20.30;96.60;;;;;;4964926;29;20116;-94
2021/07/16 06:49:30;;;;;;;;;;;;;;;;;;;;;
2021/07/16 06:52:14;;;;;;;9.70;5.43;;;21.00;97.00;;;;;;4946323;29;20114;-94
2021/07/16 07:05:53;;;;;;;;;;;;;;;;;;;;;
2021/07/16 07:08:39;;;;;;;10.07;5.45;;;21.10;95.60;;;;;;4912940;29;20080;-93
2021/07/16 07:11:13;;;;;;;11.20;6.40;;;21.00;95.70;;;;;;4912639;29;20064;-90
2021/07/16 07:13:46;;;;;;;11.18;6.03;;;20.80;95.60;;;;;;4888428;29;20044;-92
2021/07/16 07:16:15;;;;;;;9.90;6.18;;;20.80;95.70;;;;;;4914077;29;20035;-92
2021/07/16 07:18:43;;;;;;;10.20;5.72;;;20.60;95.50;;;;;;4962320;29;20129;-92
2021/07/16 07:21:10;;;;;;;10.07;6.18;;;20.60;95.60;;;;;;4946777;29;20026;-93
2021/07/16 07:23:39;;;;;;;9.60;5.93;;;20.50;95.80;;;;;;4947967;29;20023;-94
2021/07/16 07:26:05;;;;;;;10.27;5.85;;;20.50;96.00;;;;;;4949238;29;20031;-92
2021/07/16 07:32:22;;;;;;;10.18;5.28;;;20.50;95.90;;;;;;4946453;29;20077;-93
2021/07/16 07:38:37;;;;;;;9.48;5.72;;;20.40;95.90;;;;;;4924224;29;20028;-94
2021/07/16 07:42:11;;;;;;;9.95;5.50;;;20.40;95.80;;;;;;4929027;29;20108;-95
2021/07/16 07:44:43;;;;;;;10.10;6.40;;;20.30;95.80;;;;;;4924078;29;20039;-93
2021/07/16 07:47:11;;;;;;;9.90;5.85;;;20.30;95.80;;;;;;4927061;29;20024;-92
2021/07/16 07:49:40;;;;;;;9.60;5.63;;;20.30;96.10;;;;;;4933682;29;20052;-92
2021/07/16 07:52:27;;;;;;;;;;;;;;;;;;;;;
2021/07/16 07:54:54;;;;;;;9.98;6.05;;;20.40;96.10;;;;;;4948600;29;20114;-88
2021/07/16 07:57:20;;;;;;;9.35;5.30;;;20.50;96.30;;;;;;4924105;29;20038;-90
2021/07/16 07:59:48;;;;;;;10.27;6.05;;;20.50;96.50;;;;;;4925214;29;20110;-88
2021/07/16 08:02:14;;;;;;;11.45;5.85;;;20.70;96.70;;;;;;4926785;29;20032;-90
2021/07/16 08:04:42;;;;;;;10.48;5.50;;;20.80;96.70;;;;;;4926159;29;20499;-84
2021/07/16 08:07:08;;;;;;;8.85;5.18;;;21.00;97.00;;;;;;4954398;29;20518;-87
2021/07/16 08:09:36;;;;;;;9.32;5.57;;;21.20;96.90;;;;;;4958146;29;20058;-87
2021/07/16 08:12:06;;;;;;;9.50;5.70;;;21.30;96.90;;;;;;4957680;29;20067;-88
2021/07/16 08:14:32;;;;;;;9.50;5.25;;;21.50;96.60;;;;;;4959646;29;20388;-87
2021/07/16 08:16:58;;;;;;;9.40;5.40;;;21.60;96.40;;;;;;4958094;29;20039;-88
2021/07/16 08:19:24;;;;;;;9.07;4.82;;;21.60;96.10;;;;;;4957399;29;20031;-87
2021/07/16 08:21:54;;;;;;;9.65;5.03;;;21.70;96.20;;;;;;4957911;29;20027;-88
2021/07/16 08:24:24;;;;;;;9.57;5.68;;;21.70;96.30;;;;;;4958230;28;20081;-87
2021/07/16 08:26:49;;;;;;;9.52;5.75;;;21.80;96.30;;;;;;4962479;28;20027;-87
2021/07/16 08:29:16;;;;;;;9.23;5.75;;;21.80;96.40;;;;;;4959020;29;20116;-88
2021/07/16 08:31:43;;;;;;;9.65;4.53;;;22.00;96.80;;;;;;4957342;29;20118;-88
2021/07/16 08:34:10;;;;;;;8.65;4.20;;;22.30;97.00;;;;;;4958144;28;20027;-88
2021/07/16 08:36:37;;;;;;;9.90;3.95;;;22.40;96.90;;;;;;4957383;28;20051;-88
2021/07/16 08:39:04;;;;;;;8.63;4.07;;;22.60;96.90;;;;;;4958112;29;20029;-88
2021/07/16 08:41:31;;;;;;;7.78;3.47;;;22.90;97.10;;;;;;4940536;29;20020;-87
2021/07/16 08:43:56;;;;;;;5.63;2.85;;;23.20;97.10;;;;;;4957306;29;20023;-88
2021/07/16 08:46:22;;;;;;;6.70;2.70;;;23.40;96.70;;;;;;4956336;29;20118;-88
2021/07/16 08:48:48;;;;;;;4.80;2.58;;;23.50;96.60;;;;;;4940082;29;20077;-88
2021/07/16 08:51:19;;;;;;;4.43;2.50;;;23.70;96.40;;;;;;4940119;29;20027;-88
2021/07/16 08:53:48;;;;;;;5.70;2.55;;;23.70;96.20;;;;;;4957475;29;20038;-87
2021/07/16 08:56:20;;;;;;;4.18;2.20;;;23.70;95.80;;;;;;4940115;29;20118;-88
2021/07/16 08:58:46;;;;;;;3.75;2.03;;;23.60;95.50;;;;;;4940314;29;20039;-87
2021/07/16 09:01:13;;;;;;;3.58;2.00;;;23.60;95.70;;;;;;4939853;29;20027;-88
2021/07/16 09:03:59;;;;;;;2.03;1.50;;;23.60;95.90;;;;;;4956930;29;20031;-88
2021/07/16 09:06:54;;;;;;;2.50;1.70;;;23.60;95.90;;;;;;4957105;29;20227;-88
2021/07/16 09:09:23;;;;;;;4.88;1.90;;;23.60;95.60;;;;;;4939777;29;20028;-88
2021/07/16 09:11:54;;;;;;;2.85;1.75;;;23.70;96.20;;;;;;4956889;29;20035;-88
2021/07/16 09:14:26;;;;;;;3.75;1.83;;;23.80;96.10;;;;;;4957105;29;20030;-87
2021/07/16 09:17:09;;;;;;;2.63;1.70;;;23.80;95.30;;;;;;4956381;28;20027;-88
2021/07/16 09:19:47;;;;;;;4.15;2.20;;;23.70;95.30;;;;;;4939652;29;20028;-88
2021/07/16 09:22:19;;;;;;;6.10;2.47;;;23.80;95.70;;;;;;4956666;29;20496;-88
2021/07/16 09:24:57;;;;;;;5.43;2.20;;;23.80;95.20;;;;;;4956704;29;20024;-87
2021/07/16 09:27:33;;;;;;;3.72;2.20;;;23.80;95.40;;;;;;4939192;29;20027;-88
2021/07/16 09:30:21;;;;;;;4.05;2.10;;;23.80;95.80;;;;;;4939427;29;20043;-88
2021/07/16 09:33:09;;;;;;;3.30;1.95;;;23.90;95.80;;;;;;4956571;29;20391;-88
2021/07/16 09:35:39;;;;;;;4.15;2.20;;;23.90;95.60;;;;;;4936941;29;20051;-87
2021/07/16 09:38:16;;;;;;;5.20;2.30;;;23.90;95.20;;;;;;4956131;29;20494;-88
2021/07/16 09:40:53;;;;;;;3.38;1.98;;;24.00;95.70;;;;;;4956401;29;20023;-87
2021/07/16 09:43:26;;;;;;;5.50;2.22;;;23.90;95.70;;;;;;4956304;29;20027;-88
2021/07/16 09:45:51;;;;;;;3.22;2.10;;;24.00;95.60;;;;;;4960077;29;20484;-87
2021/07/16 09:48:23;;;;;;;4.05;2.63;;;24.00;95.60;;;;;;4955305;29;20079;-87
2021/07/16 09:51:09;;;;;;;5.63;2.70;;;24.10;95.80;;;;;;4935674;29;20031;-88
2021/07/16 09:53:48;;;;;;;6.20;2.50;;;24.30;96.20;;;;;;4935759;29;20400;-88
2021/07/16 09:56:25;;;;;;;5.22;2.72;;;24.40;96.00;;;;;;4939808;29;20031;-90
2021/07/16 09:59:06;;;;;;;9.45;3.50;;;24.50;95.50;;;;;;4921852;29;20031;-94
2021/07/16 10:01:33;;;;;;;4.63;2.22;;;24.60;95.80;;;;;;4921848;29;20096;-92
2021/07/16 10:04:00;;;;;;;3.40;2.03;;;24.60;95.70;;;;;;4923972;29;20095;-92
2021/07/16 10:06:29;;;;;;;4.38;2.25;;;24.80;95.90;;;;;;4929285;29;20028;-93
2021/07/16 10:09:01;;;;;;;4.00;2.20;;;24.90;95.80;;;;;;4929156;29;20028;-93
2021/07/16 10:11:28;;;;;;;3.95;2.40;;;25.00;96.00;;;;;;4930646;29;20051;-92
2021/07/16 10:13:59;;;;;;;4.88;2.28;;;25.10;95.70;;;;;;4929275;29;20063;-94
2021/07/16 10:16:28;;;;;;;5.15;2.20;;;25.20;95.60;;;;;;4932585;29;20052;-93
2021/07/16 10:18:58;;;;;;;5.35;2.17;;;25.30;95.90;;;;;;4931936;29;20031;-93
2021/07/16 10:21:25;;;;;;;2.70;1.88;;;25.40;95.70;;;;;;4930232;29;20028;-95
2021/07/16 10:23:54;;;;;;;6.18;2.30;;;25.40;95.60;;;;;;4930797;29;20023;-91
2021/07/16 10:26:22;;;;;;;4.68;2.20;;;25.40;95.60;;;;;;4930479;29;20088;-92
2021/07/16 10:28:49;;;;;;;4.93;2.10;;;25.60;95.60;;;;;;4946024;29;20024;-92
2021/07/16 10:31:39;;;;;;;3.55;2.10;;;25.60;95.80;;;;;;4913129;29;20031;-92
2021/07/16 10:34:14;;;;;;;4.47;2.20;;;25.80;96.10;;;;;;4928488;29;20047;-93
2021/07/16 10:36:50;;;;;;;6.90;2.00;;;26.00;95.80;;;;;;4948309;29;20494;-93
2021/07/16 10:39:39;;;;;;;4.03;1.90;;;26.20;95.70;;;;;;4949811;29;20059;-94
2021/07/16 10:42:25;;;;;;;4.13;1.95;;;26.30;95.50;;;;;;4948492;29;20019;-93
2021/07/16 10:44:58;;;;;;;2.92;1.80;;;26.40;95.70;;;;;;4951697;28;20031;-90
2021/07/16 10:47:49;;;;;;;4.32;2.05;;;26.50;96.00;;;;;;4940771;29;20086;-90
2021/07/16 10:50:37;;;;;;;2.85;1.98;;;26.80;96.10;;;;;;4920499;29;20052;-88
2021/07/16 10:53:04;;;;;;;2.47;1.80;;;27.00;96.00;;;;;;4919945;29;20036;-87
2021/07/16 10:55:43;;;;;;;4.28;1.98;;;27.20;96.30;;;;;;4935940;29;20480;-90
2021/07/16 10:58:50;;;;;;;3.70;1.80;;;27.60;96.60;;;;;;4924979;29;20067;-94
2021/07/16 11:01:46;;;;;;;2.83;1.83;;;27.90;96.60;;;;;;4926651;29;20064;-94
2021/07/16 11:04:37;;;;;;;3.13;1.70;;;28.30;96.20;;;;;;4926813;29;20020;-94
2021/07/16 11:07:09;;;;;;;5.95;1.85;;;28.60;96.20;;;;;;4928983;29;20485;-94
2021/07/16 11:09:46;;;;;;;3.03;1.58;;;28.80;95.80;;;;;;4927435;29;20060;-89
2021/07/16 11:12:32;;;;;;;2.75;1.77;;;29.00;95.60;;;;;;4921567;29;20044;-93
2021/07/16 11:15:02;;;;;;;2.28;1.60;;;28.90;94.40;;;;;;4938869;29;20016;-92
2021/07/16 11:18:01;;;;;;;2.45;1.60;;;28.70;93.50;;;;;;4924973;29;20063;-92
2021/07/16 11:20:35;;;;;;;3.08;1.45;;;28.60;94.80;;;;;;4923870;29;20075;-93
2021/07/16 11:23:10;;;;;;;3.22;1.73;;;29.10;96.80;;;;;;4943781;29;20457;-92
2021/07/16 11:25:53;;;;;;;2.08;1.50;;;29.90;97.30;;;;;;4944264;29;20044;-94
2021/07/16 11:28:21;;;;;;;4.93;1.70;;;30.80;98.10;;;;;;4941908;29;20032;-93
2021/07/16 11:31:04;;;;;;;1.52;1.30;;;31.80;98.40;;;;;;4944293;29;20031;-91
2021/07/16 11:33:56;;;;;;;1.40;1.30;;;32.60;97.20;;;;;;4944843;29;20044;-94
2021/07/16 11:36:30;;;;;;;3.38;1.48;;;33.10;95.30;;;;;;4945522;29;20035;-94
2021/07/16 11:39:39;;;;;;;2.28;1.30;;;32.90;93.20;;;;;;4929567;29;20028;-94
2021/07/16 11:42:21;;;;;;;3.15;1.38;;;32.40;92.30;;;;;;4932219;29;20032;-93
2021/07/16 11:44:59;;;;;;;2.42;1.80;;;31.60;91.50;;;;;;4947808;29;20040;-93
2021/07/16 11:47:36;;;;;;;3.00;1.60;;;31.50;95.30;;;;;;4916174;29;20032;-92
2021/07/16 11:50:36;;;;;;;2.38;1.52;;;32.20;96.70;;;;;;4948718;29;20071;-92
2021/07/16 11:53:18;;;;;;;;;;;;;;;;;;;;;
2021/07/16 11:56:32;;;;;;;;;;;;;;;;;;;;;
2021/07/16 11:59:34;;;;;;;;;;;;;;;;;;;;;
2021/07/16 12:02:41;;;;;;;1.48;1.35;;;35.40;97.40;;;;;;4931095;29;20123;-92
2021/07/16 12:05:27;;;;;;;;;;;;;;;;;;;;;
2021/07/16 12:10:50;;;;;;;2.25;1.30;;;37.60;90.50;;;;;;4922558;29;20385;-92
2021/07/16 12:13:30;;;;;;;1.42;1.20;;;37.10;90.00;;;;;;4912212;29;20048;-91
2021/07/16 12:19:35;;;;;;;;;;;;;;;;;;;;;
2021/07/16 12:22:33;;;;;;;1.90;1.58;;;39.60;93.70;;;;;;4929785;29;20084;-92
2021/07/16 12:29:31;;;;;;;;;;;;;;;;;;;;;
2021/07/16 12:35:39;;;;;;;;;;;;;;;;;;;;;
2021/07/16 12:38:35;;;;;;;;;;;;;;;;;;;;;
2021/07/16 12:41:38;;;;;;;3.33;1.38;;;37.40;85.70;;;;;;4923042;29;20404;-92
2021/07/16 12:44:50;;;;;;;3.25;1.50;;;37.50;94.60;;;;;;4925313;29;20028;-93
2021/07/16 12:48:20;;;;;;;;;;;;;;;;;;;;;
2021/07/16 12:55:13;;;;;;;;;;;;;;;;;;;;;
2021/07/16 12:58:39;;;;;;;1.52;1.42;;;41.50;94.60;;;;;;4860649;29;20116;-93
2021/07/16 13:09:05;;;;;;;;;;;;;;;;;;;;;
2021/07/16 13:12:10;;;;;;;1.35;1.17;;;46.10;87.10;;;;;;4797643;29;20135;-94
2021/07/16 13:15:32;;;;;;;;;;;;;;;;;;;;;
2021/07/16 16:50:33;;;;;;;;;;;;;;;;;;;;;
2021/07/16 17:17:39;;;;;;;;;;;;;;;;;;;;;
2021/07/16 17:27:09;;;;;;;;;;;;;;;;;;;;;
2021/07/16 17:30:00;;;;;;;3.22;1.90;;;36.50;61.00;;;;;;4962117;28;20031;-92
2021/07/16 17:32:43;;;;;;;3.28;1.88;;;35.20;63.10;;;;;;4927252;29;20048;-91
2021/07/16 17:35:21;;;;;;;4.15;2.10;;;34.30;64.50;;;;;;4940469;28;20020;-92
2021/07/16 17:37:53;;;;;;;4.05;2.00;;;33.60;65.30;;;;;;4943026;29;20008;-92
2021/07/16 17:40:24;;;;;;;3.35;1.70;;;33.00;65.50;;;;;;4944215;29;20028;-92
2021/07/16 17:42:57;;;;;;;2.78;2.00;;;32.50;66.50;;;;;;4942083;29;20519;-93
2021/07/16 17:45:33;;;;;;;7.30;2.05;;;32.00;68.30;;;;;;4941540;29;20043;-92
2021/07/16 17:48:04;;;;;;;2.40;1.67;;;31.70;68.40;;;;;;4936520;29;20028;-94
2021/07/16 17:50:43;;;;;;;4.90;2.10;;;31.40;69.40;;;;;;4930596;29;20050;-93
2021/07/16 17:53:39;;;;;;;2.65;1.75;;;31.30;70.70;;;;;;4925654;29;20039;-94
2021/07/16 17:56:12;;;;;;;3.03;1.92;;;31.10;71.10;;;;;;4924176;29;20028;-93
2021/07/16 17:58:47;;;;;;;;;;;;;;;;;;;;;
2021/07/16 18:01:21;;;;;;;4.78;2.10;;;30.80;72.00;;;;;;4940691;29;20437;-93
2021/07/16 18:04:03;;;;;;;;;;;;;;;;;;;;;
2021/07/16 18:06:33;;;;;;;4.55;1.90;;;30.60;72.40;;;;;;4943005;29;20110;-93
2021/07/16 18:08:58;;;;;;;3.85;2.10;;;30.40;72.70;;;;;;4923631;29;20456;-86
2021/07/16 18:11:25;;;;;;;3.80;2.00;;;30.30;72.90;;;;;;4937425;29;20098;-87
2021/07/16 18:13:52;;;;;;;4.22;2.00;;;30.10;72.90;;;;;;4937436;29;20035;-83
2021/07/16 18:16:17;;;;;;;4.22;2.38;;;29.90;73.20;;;;;;4921002;29;20031;-87
2021/07/16 18:18:43;;;;;;;3.55;2.05;;;29.70;73.30;;;;;;4937954;29;20055;-82
2021/07/16 18:21:11;;;;;;;6.28;2.20;;;29.50;73.40;;;;;;4937295;29;20036;-86
2021/07/16 18:23:38;;;;;;;3.30;2.00;;;29.40;74.20;;;;;;4936734;29;20035;-86
2021/07/16 18:26:03;;;;;;;3.72;2.15;;;29.20;74.40;;;;;;4936613;29;20167;-86
2021/07/16 18:28:29;;;;;;;6.75;2.20;;;29.10;74.10;;;;;;4936840;29;20492;-85
2021/07/16 18:30:56;;;;;;;3.78;2.30;;;29.00;74.20;;;;;;4951923;29;20469;-85
2021/07/16 18:33:25;;;;;;;3.92;2.20;;;28.80;74.20;;;;;;4937888;29;20047;-89
2021/07/16 18:35:53;;;;;;;3.47;2.35;;;28.60;74.60;;;;;;4931126;29;20028;-88
2021/07/16 18:38:21;;;;;;;4.32;2.40;;;28.40;74.90;;;;;;4922792;29;20472;-87
2021/07/16 18:40:49;;;;;;;4.03;2.40;;;28.30;75.50;;;;;;4937794;29;20034;-87
2021/07/16 18:43:15;;;;;;;6.85;2.67;;;28.20;75.40;;;;;;4920227;29;20027;-87
2021/07/16 18:45:48;;;;;;;4.45;2.30;;;28.00;75.40;;;;;;4922168;29;20536;-89
2021/07/16 18:48:18;;;;;;;5.50;2.70;;;27.90;75.60;;;;;;4923632;29;20495;-89
2021/07/16 18:50:43;;;;;;;5.75;2.70;;;27.70;75.60;;;;;;4940168;29;20053;-85
2021/07/16 18:53:40;;;;;;;;;;;;;;;;;;;;;
2021/07/16 18:56:07;;;;;;;4.78;2.67;;;27.20;75.80;;;;;;4944946;29;20102;-92
2021/07/16 19:10:12;;;;;;;6.35;3.10;;;26.20;76.90;;;;;;5029005;23;20068;-94
2021/07/16 19:12:54;;;;;;;5.47;2.90;;;26.00;77.10;;;;;;4941451;29;20039;-91
2021/07/16 19:15:58;;;;;;;6.60;3.20;;;25.80;77.50;;;;;;4927845;29;20035;-91
2021/07/16 19:18:24;;;;;;;7.03;2.97;;;25.70;77.90;;;;;;4924838;29;20026;-91
2021/07/16 19:21:11;;;;;;;5.57;3.03;;;25.50;77.70;;;;;;4943634;29;20117;-92
2021/07/16 19:23:47;;;;;;;6.88;3.28;;;25.40;78.10;;;;;;4944931;29;20078;-95
2021/07/16 19:26:18;;;;;;;6.57;3.10;;;25.30;78.00;;;;;;4947721;29;20460;-92
2021/07/16 19:32:08;;;;;;;7.55;3.50;;;25.00;78.30;;;;;;4900819;29;20055;-88
2021/07/16 19:34:36;;;;;;;5.70;3.13;;;25.00;78.90;;;;;;4940847;29;20066;-83
2021/07/16 19:37:04;;;;;;;6.13;3.20;;;24.90;79.20;;;;;;4956810;29;20024;-82
2021/07/16 19:39:29;;;;;;;7.13;3.63;;;24.90;79.10;;;;;;4955609;29;20027;-83
2021/07/16 19:41:55;;;;;;;7.50;3.50;;;24.80;79.20;;;;;;4956938;29;20116;-84
2021/07/16 19:44:20;;;;;;;6.50;3.10;;;24.70;79.30;;;;;;4940646;29;20095;-82
2021/07/16 19:46:46;;;;;;;6.03;3.20;;;24.70;79.40;;;;;;4955632;29;20034;-83
2021/07/16 19:49:12;;;;;;;6.80;3.63;;;24.60;79.50;;;;;;4958317;29;20062;-82
2021/07/16 19:51:37;;;;;;;7.03;3.58;;;24.60;79.80;;;;;;4940150;29;20035;-83
2021/07/16 19:54:05;;;;;;;7.80;3.60;;;24.50;79.80;;;;;;4960777;29;20039;-83
2021/07/16 19:56:31;;;;;;;6.15;3.25;;;24.40;79.70;;;;;;4939230;29;20119;-84
2021/07/16 19:58:58;;;;;;;7.60;3.50;;;24.40;79.80;;;;;;4942632;29;20126;-83
2021/07/16 20:01:23;;;;;;;7.15;3.50;;;24.30;79.70;;;;;;4960738;28;20023;-83
2021/07/16 20:03:49;;;;;;;6.32;3.35;;;24.20;80.00;;;;;;4946581;29;20031;-83
2021/07/16 20:06:15;;;;;;;6.28;3.40;;;24.20;80.50;;;;;;4962427;29;20527;-82
2021/07/16 20:08:49;;;;;;;6.78;3.40;;;24.10;80.50;;;;;;4949620;29;20044;-88
2021/07/16 20:18:10;;;;;;;6.68;3.50;;;24.10;81.10;;;;;;4822179;29;20043;-87
2021/07/16 20:21:05;;;;;;;7.43;3.70;;;23.90;80.90;;;;;;4921465;29;20040;-87
2021/07/16 20:23:59;;;;;;;6.63;3.55;;;23.90;81.30;;;;;;4922898;29;20365;-86
2021/07/16 20:27:21;;;;;;;6.78;3.75;;;23.80;81.20;;;;;;4936420;29;20079;-88
2021/07/16 20:29:50;;;;;;;7.28;3.80;;;23.70;81.40;;;;;;4938574;29;20024;-83
2021/07/16 20:32:21;;;;;;;6.60;3.55;;;23.60;80.90;;;;;;4937275;29;20499;-83
2021/07/16 20:34:46;;;;;;;7.18;3.90;;;23.60;81.30;;;;;;4940575;29;20035;-83
2021/07/16 20:37:14;;;;;;;8.25;3.92;;;23.50;81.60;;;;;;4921377;29;20393;-83
2021/07/16 20:39:47;;;;;;;10.00;3.95;;;23.50;81.60;;;;;;4921067;29;20126;-83
2021/07/16 20:42:12;;;;;;;7.72;4.28;;;23.40;81.80;;;;;;4938282;29;20024;-83
2021/07/16 20:44:38;;;;;;;9.68;5.00;;;23.30;82.00;;;;;;4937128;29;20499;-83
2021/07/16 20:47:04;;;;;;;7.38;4.05;;;23.40;82.10;;;;;;4938235;29;20098;-83
2021/07/16 20:49:29;;;;;;;7.38;3.83;;;23.30;82.00;;;;;;4937230;29;20032;-83
2021/07/16 20:51:55;;;;;;;7.57;4.15;;;23.30;82.20;;;;;;4920961;29;20173;-83
2021/07/16 20:54:21;;;;;;;8.10;4.35;;;23.30;82.20;;;;;;4937950;29;20035;-83
2021/07/16 20:56:46;;;;;;;16.25;12.00;;;23.30;82.20;;;;;;4938275;29;20059;-84
2021/07/16 20:59:14;;;;;;;8.93;4.95;;;23.20;82.40;;;;;;4936742;29;20038;-85
2021/07/16 21:01:41;;;;;;;8.98;4.53;;;23.20;82.50;;;;;;4920922;29;20396;-85
2021/07/16 21:04:07;;;;;;;9.20;4.28;;;23.20;82.50;;;;;;4938388;29;20027;-85
2021/07/16 21:06:33;;;;;;;8.98;4.15;;;23.20;82.60;;;;;;4937865;29;20032;-84
2021/07/16 21:09:00;;;;;;;10.38;6.28;;;23.00;82.40;;;;;;4937999;29;20055;-84
2021/07/16 21:11:29;;;;;;;8.52;5.00;;;23.00;82.70;;;;;;4938497;29;20083;-84
2021/07/16 21:13:55;;;;;;;8.63;4.70;;;23.00;82.50;;;;;;4937850;29;20035;-84
2021/07/16 21:16:21;;;;;;;9.00;4.35;;;22.90;82.70;;;;;;4920916;29;20035;-85
2021/07/16 21:18:46;;;;;;;9.48;4.25;;;22.90;82.90;;;;;;4937990;29;20036;-85
2021/07/16 21:21:12;;;;;;;10.23;5.75;;;22.90;83.00;;;;;;4920954;29;20039;-85
2021/07/16 21:23:38;;;;;;;8.13;4.75;;;22.90;83.00;;;;;;4937908;29;20051;-85
2021/07/16 21:26:07;;;;;;;11.73;7.28;;;22.80;83.20;;;;;;4938003;29;20035;-85
2021/07/16 21:28:32;;;;;;;10.93;6.60;;;22.80;83.20;;;;;;4936438;29;20028;-85
2021/07/16 21:30:58;;;;;;;8.98;5.57;;;22.70;83.30;;;;;;4938056;29;20099;-85
2021/07/16 21:33:31;;;;;;;10.48;4.63;;;22.70;83.20;;;;;;4938274;29;20484;-85
2021/07/16 21:35:57;;;;;;;10.15;4.85;;;22.60;83.30;;;;;;4925638;29;20032;-84
2021/07/16 21:38:23;;;;;;;8.88;5.22;;;22.60;83.40;;;;;;4938907;29;20028;-85
2021/07/16 21:40:51;;;;;;;11.65;6.97;;;22.50;83.40;;;;;;4938539;29;20027;-84
2021/07/16 21:43:17;;;;;;;13.23;10.05;;;22.50;83.60;;;;;;4938343;29;20042;-84
2021/07/16 21:45:43;;;;;;;9.70;5.22;;;22.50;83.80;;;;;;4937223;29;20023;-84
2021/07/16 21:48:09;;;;;;;8.25;4.88;;;22.50;83.90;;;;;;4938395;29;20031;-84
2021/07/16 21:50:35;;;;;;;9.80;5.20;;;22.50;83.90;;;;;;4920683;29;20032;-85
2021/07/16 21:53:00;;;;;;;9.07;5.18;;;22.50;83.80;;;;;;4937241;29;20047;-84
2021/07/16 21:55:26;;;;;;;9.50;5.05;;;22.40;83.60;;;;;;4936680;29;20115;-84
2021/07/16 21:57:52;;;;;;;9.75;5.15;;;22.20;83.70;;;;;;4937674;29;20083;-84
2021/07/16 22:00:20;;;;;;;9.50;5.35;;;22.20;83.80;;;;;;4937390;29;20055;-84
2021/07/16 22:02:49;;;;;;;9.50;5.57;;;22.10;83.80;;;;;;4920622;29;20027;-84
2021/07/16 22:05:16;;;;;;;10.15;5.40;;;22.10;84.00;;;;;;4937416;29;20034;-84
2021/07/16 22:07:46;;;;;;;10.95;5.90;;;22.00;84.10;;;;;;4937347;29;20024;-85
2021/07/16 22:10:15;;;;;;;9.63;5.60;;;21.90;84.00;;;;;;4936854;29;20044;-85
2021/07/16 22:12:50;;;;;;;10.00;5.70;;;21.90;84.20;;;;;;4920271;29;20067;-85
2021/07/16 22:15:16;;;;;;;10.32;6.13;;;21.70;84.20;;;;;;4937401;29;20019;-84
2021/07/16 22:17:45;;;;;;;9.90;6.00;;;21.70;84.20;;;;;;4920349;29;20539;-85
2021/07/16 22:20:11;;;;;;;9.55;5.80;;;21.70;84.40;;;;;;4936898;29;20551;-84
2021/07/16 22:22:44;;;;;;;9.63;5.82;;;21.60;84.50;;;;;;4937098;29;20079;-85
2021/07/16 22:25:10;;;;;;;10.18;6.45;;;21.50;84.60;;;;;;4919849;29;20376;-85
2021/07/16 22:27:47;;;;;;;17.95;6.13;;;21.50;84.70;;;;;;4938680;29;20361;-85
2021/07/16 22:30:16;;;;;;;11.57;6.68;;;21.50;84.80;;;;;;4938724;29;20091;-85
2021/07/16 22:32:42;;;;;;;9.40;5.75;;;21.40;84.90;;;;;;4938132;29;20067;-85
2021/07/16 22:35:12;;;;;;;9.27;5.85;;;21.50;85.10;;;;;;4938985;29;20024;-85
2021/07/16 22:37:38;;;;;;;9.95;6.43;;;21.40;85.20;;;;;;4920405;29;20467;-85
2021/07/16 22:40:05;;;;;;;10.23;6.00;;;21.40;85.30;;;;;;4919808;29;20024;-84
2021/07/16 22:42:33;;;;;;;9.40;6.38;;;21.40;85.20;;;;;;4919605;29;20052;-84
2021/07/16 22:44:59;;;;;;;9.77;6.20;;;21.30;85.10;;;;;;4936405;29;20059;-84
2021/07/16 22:47:27;;;;;;;10.20;6.40;;;21.30;85.10;;;;;;4919438;29;20051;-84
2021/07/16 22:49:53;;;;;;;9.77;6.28;;;21.30;85.30;;;;;;4935071;29;20036;-84
2021/07/16 22:52:18;;;;;;;11.30;6.80;;;21.20;85.30;;;;;;4936185;29;20078;-87
2021/07/16 22:54:44;;;;;;;10.63;6.63;;;21.10;85.30;;;;;;4919453;29;20028;-85
2021/07/16 22:57:13;;;;;;;10.73;6.65;;;21.10;85.40;;;;;;4936286;29;20472;-88
2021/07/16 22:59:40;;;;;;;10.70;6.70;;;21.10;85.50;;;;;;4919374;29;20031;-87
2021/07/16 23:02:08;;;;;;;10.50;6.35;;;21.10;85.70;;;;;;4918972;29;20024;-87
2021/07/16 23:04:34;;;;;;;21.88;15.50;;;21.00;85.60;;;;;;4936125;29;20489;-87
2021/07/16 23:07:00;;;;;;;12.38;6.82;;;20.90;85.60;;;;;;4936125;29;20027;-86
2021/07/16 23:09:25;;;;;;;10.68;7.03;;;20.90;85.70;;;;;;4909608;29;20064;-87